Time;durP1;ratioP1;P1;durP2;ratioP2;P2;SDS_P1;SDS_P2;PMS_P1;PMS_P2;Temp;Humidity;BMP_temperature;BMP_pressure;BME280_temperature;BME280_humidity;BME280_pressure;Samples;Min_cycle;Max_cycle;Signal;HPM_P1;HPM_P2
2023/07/05 00:02:16;;;;;;;5.88;3.25;;;;;;;16.40;100.00;98309.91;5047031;28;20029;-77
2023/07/05 00:04:42;;;;;;;8.25;3.25;;;;;;;16.32;100.00;98285.78;5053208;28;20556;-78
2023/07/05 00:07:07;;;;;;;10.60;3.15;;;;;;;16.61;100.00;98302.78;5067196;28;20055;-77
2023/07/05 00:09:32;;;;;;;7.05;3.05;;;;;;;16.71;100.00;98298.53;5067554;28;20032;-77
2023/07/05 00:11:57;;;;;;;7.45;3.20;;;;;;;16.62;100.00;98276.31;5056340;28;20047;-76
2023/07/05 00:14:23;;;;;;;4.78;2.97;;;;;;;16.57;100.00;98263.41;5065789;28;20017;-77
2023/07/05 00:16:49;;;;;;;4.38;2.65;;;;;;;16.55;100.00;98259.28;5063946;28;20219;-77
2023/07/05 00:19:14;;;;;;;6.68;3.05;;;;;;;16.61;100.00;98274.63;5050793;28;20024;-77
2023/07/05 00:21:39;;;;;;;11.60;3.65;;;;;;;16.63;100.00;98278.75;5073676;22;20111;-77
2023/07/05 00:24:05;;;;;;;6.10;2.90;;;;;;;16.56;100.00;98260.94;5050788;28;20028;-77
2023/07/05 00:26:30;;;;;;;8.55;3.53;;;;;;;16.48;100.00;98272.28;5053621;28;20032;-77
2023/07/05 00:28:55;;;;;;;7.60;3.10;;;;;;;16.35;100.00;98260.69;5050280;28;20144;-77
2023/07/05 00:31:21;;;;;;;11.63;3.38;;;;;;;16.20;100.00;98266.78;5051955;28;20154;-76
2023/07/05 00:33:47;;;;;;;8.57;3.30;;;;;;;16.09;100.00;98275.09;5051580;28;20024;-77
2023/07/05 00:36:13;;;;;;;7.32;3.10;;;;;;;15.92;100.00;98272.38;5052447;28;20021;-77
2023/07/05 00:38:38;;;;;;;5.45;2.85;;;;;;;15.81;100.00;98265.97;5066858;28;20406;-77
2023/07/05 00:41:03;;;;;;;7.70;3.33;;;;;;;15.90;100.00;98261.75;5050890;28;20036;-76
2023/07/05 00:43:29;;;;;;;7.32;3.17;;;;;;;16.10;100.00;98263.09;5052321;28;20024;-77
2023/07/05 00:45:56;;;;;;;7.75;2.67;;;;;;;16.25;100.00;98254.28;5051207;28;20017;-77
2023/07/05 00:48:47;;;;;;;5.97;2.63;;;;;;;16.49;100.00;98265.78;5048524;28;20029;-77
2023/07/05 00:51:43;;;;;;;8.27;3.05;;;;;;;16.58;100.00;98265.06;5046990;28;20025;-77
2023/07/05 00:54:10;;;;;;;7.40;3.00;;;;;;;16.71;100.00;98244.72;5051462;28;20483;-76
2023/07/05 00:56:48;;;;;;;5.43;2.97;;;;;;;17.07;100.00;98256.03;5046100;28;20029;-77
2023/07/05 00:59:15;;;;;;;8.85;2.83;;;;;;;17.24;100.00;98240.34;5049803;28;20021;-76
2023/07/05 01:01:41;;;;;;;4.38;2.50;;;;;;;17.38;100.00;98243.47;5050237;28;20029;-76
2023/07/05 01:04:07;;;;;;;7.75;2.67;;;;;;;17.61;100.00;98242.28;5051141;28;20094;-77
2023/07/05 01:06:32;;;;;;;6.05;2.35;;;;;;;17.75;100.00;98245.38;5050847;28;20470;-76
2023/07/05 01:08:58;;;;;;;8.88;2.67;;;;;;;17.74;100.00;98241.81;5051860;28;20033;-77
2023/07/05 01:11:30;;;;;;;6.88;2.45;;;;;;;17.81;100.00;98238.84;5049772;28;20382;-77
2023/07/05 01:14:02;;;;;;;6.57;3.05;;;;;;;17.80;100.00;98241.88;5044306;28;20025;-76
2023/07/05 01:16:43;;;;;;;6.18;2.55;;;;;;;17.74;100.00;98233.59;5051113;28;20025;-77
2023/07/05 01:19:44;;;;;;;7.53;2.83;;;;;;;17.84;100.00;98243.84;5048320;28;20027;-77
2023/07/05 01:22:23;;;;;;;5.85;2.60;;;;;;;17.93;100.00;98234.03;5045667;28;20025;-76
2023/07/05 01:25:09;;;;;;;4.97;2.80;;;;;;;18.02;100.00;98245.28;5050766;28;20017;-77
2023/07/05 01:27:56;;;;;;;9.52;2.33;;;;;;;18.06;100.00;98229.97;5048337;28;20125;-77
2023/07/05 01:30:27;;;;;;;5.85;3.00;;;;;;;18.17;100.00;98230.84;5052632;28;20025;-77
2023/07/05 01:32:59;;;;;;;7.15;2.22;;;;;;;18.20;100.00;98235.78;5049970;28;20036;-77
2023/07/05 01:35:29;;;;;;;5.15;2.33;;;;;;;18.22;100.00;98232.81;5052080;28;20467;-77
2023/07/05 01:37:55;;;;;;;7.60;2.60;;;;;;;18.27;100.00;98225.44;5046525;28;20032;-77
2023/07/05 01:40:20;;;;;;;4.97;2.28;;;;;;;18.37;100.00;98230.13;5055223;28;20025;-77
2023/07/05 01:42:48;;;;;;;6.33;2.40;;;;;;;18.42;100.00;98213.72;5054779;28;20215;-77
2023/07/05 01:45:14;;;;;;;9.25;2.50;;;;;;;18.53;100.00;98226.34;5054917;28;20469;-77
2023/07/05 01:47:51;;;;;;;6.80;2.72;;;;;;;18.57;100.00;98238.38;5054027;28;20033;-77
2023/07/05 01:50:20;;;;;;;6.72;2.58;;;;;;;18.61;100.00;98247.72;5049103;28;20025;-77
2023/07/05 01:53:16;;;;;;;6.20;2.83;;;;;;;17.79;100.00;98246.53;5048463;28;20470;-76
2023/07/05 01:56:20;;;;;;;5.85;2.70;;;;;;;17.14;100.00;98281.25;5055402;28;20025;-77
2023/07/05 01:58:47;;;;;;;6.85;2.88;;;;;;;16.66;100.00;98266.50;5037712;28;20091;-76
2023/07/05 02:01:15;;;;;;;5.22;2.88;;;;;;;16.14;100.00;98231.50;5050718;28;20064;-76
2023/07/05 02:03:41;;;;;;;5.93;2.80;;;;;;;16.32;100.00;98304.03;5052045;28;20028;-76
2023/07/05 02:06:09;;;;;;;5.57;2.90;;;;;;;16.16;100.00;98324.84;5044418;28;20542;-76
2023/07/05 02:08:39;;;;;;;7.03;3.00;;;;;;;16.15;100.00;98331.41;5054752;28;20360;-76
2023/07/05 02:11:05;;;;;;;8.75;3.15;;;;;;;15.99;100.00;98333.91;5051031;28;20021;-76
2023/07/05 02:13:31;;;;;;;8.82;2.92;;;;;;;15.97;100.00;98338.75;5069654;28;20031;-76
2023/07/05 02:15:56;;;;;;;7.18;3.20;;;;;;;15.82;100.00;98315.88;5054668;28;20032;-76
2023/07/05 02:18:21;;;;;;;5.03;3.17;;;;;;;15.82;100.00;98341.25;5054298;28;20024;-76
2023/07/05 02:20:47;;;;;;;7.78;3.55;;;;;;;15.73;100.00;98346.31;5052922;28;20021;-76
2023/07/05 02:23:12;;;;;;;8.32;3.28;;;;;;;15.79;100.00;98349.94;5054079;28;20024;-76
2023/07/05 02:25:38;;;;;;;6.68;3.30;;;;;;;15.85;100.00;98348.97;5053570;28;20423;-76
2023/07/05 02:28:07;;;;;;;6.90;3.33;;;;;;;15.71;100.00;98326.63;5044642;28;20422;-75
2023/07/05 02:30:39;;;;;;;5.18;2.85;;;;;;;15.88;100.00;98356.66;5051292;28;20079;-76
2023/07/05 02:33:05;;;;;;;5.13;3.25;;;;;;;15.83;100.00;98364.75;5051921;28;20060;-76
2023/07/05 02:35:37;;;;;;;5.78;3.60;;;;;;;15.82;100.00;98381.34;5054050;28;20052;-76
2023/07/05 02:38:04;;;;;;;4.75;2.90;;;;;;;15.96;100.00;98394.41;5051584;28;20029;-75
2023/07/05 02:40:29;;;;;;;10.43;3.63;;;;;;;16.00;100.00;98378.38;5052828;28;20025;-76
2023/07/05 02:42:55;;;;;;;7.97;3.38;;;;;;;16.02;100.00;98370.78;5048361;28;20078;-76
2023/07/05 02:45:21;;;;;;;7.15;3.70;;;;;;;16.03;100.00;98372.41;5064864;28;20017;-76
2023/07/05 02:47:47;;;;;;;8.55;4.05;;;;;;;15.94;100.00;98363.81;5042170;28;20080;-76
2023/07/05 02:50:17;;;;;;;10.82;3.60;;;;;;;16.06;100.00;98357.44;5041094;28;20052;-76
2023/07/05 02:52:43;;;;;;;6.65;3.65;;;;;;;16.07;100.00;98373.56;5047955;28;20049;-76
2023/07/05 02:55:08;;;;;;;6.63;3.60;;;;;;;16.06;100.00;98354.72;5046996;28;20029;-76
2023/07/05 02:57:33;;;;;;;6.20;2.97;;;;;;;16.19;100.00;98338.84;5046496;28;20032;-81
2023/07/05 02:59:59;;;;;;;4.32;3.00;;;;;;;16.19;100.00;98351.63;5052563;28;20044;-82
2023/07/05 03:02:24;;;;;;;5.30;2.92;;;;;;;16.24;100.00;98348.97;5047664;28;20055;-84
2023/07/05 03:04:50;;;;;;;5.45;3.40;;;;;;;16.21;100.00;98338.56;5051938;28;20063;-82
2023/07/05 03:07:15;;;;;;;5.53;2.90;;;;;;;16.00;100.00;98289.16;5047700;28;20072;-83
2023/07/05 03:09:40;;;;;;;7.60;3.25;;;;;;;16.21;100.00;98328.47;5051479;28;20071;-82
2023/07/05 03:12:06;;;;;;;6.20;2.97;;;;;;;16.12;100.00;98283.59;5055715;28;20024;-79
2023/07/05 03:14:31;;;;;;;6.00;3.03;;;;;;;16.28;100.00;98297.47;5056443;28;20020;-80
2023/07/05 03:16:57;;;;;;;8.70;3.17;;;;;;;16.54;100.00;98307.63;5066940;28;20113;-81
2023/07/05 03:19:22;;;;;;;10.88;2.72;;;;;;;16.46;100.00;98277.22;5066832;28;20028;-80
2023/07/05 03:21:47;;;;;;;6.68;3.08;;;;;;;16.60;100.00;98292.13;5047687;28;20048;-80
2023/07/05 03:24:13;;;;;;;3.83;2.35;;;;;;;16.64;100.00;98302.28;5072891;28;20085;-80
2023/07/05 03:26:38;;;;;;;6.47;2.97;;;;;;;16.67;100.00;98300.94;5068128;28;20033;-79
2023/07/05 03:29:04;;;;;;;9.23;2.65;;;;;;;16.65;100.00;98309.38;5050516;28;20054;-81
2023/07/05 03:31:29;;;;;;;7.13;2.45;;;;;;;16.60;100.00;98322.97;5045726;28;20021;-81
2023/07/05 03:33:55;;;;;;;8.95;2.58;;;;;;;16.55;100.00;98324.81;5052235;28;20037;-80
2023/07/05 03:36:20;;;;;;;6.60;2.70;;;;;;;16.49;100.00;98329.41;5055621;28;20040;-81
2023/07/05 03:38:48;;;;;;;5.15;2.63;;;;;;;16.43;100.00;98328.50;5050386;28;20064;-80
2023/07/05 03:41:17;;;;;;;5.25;3.00;;;;;;;16.29;100.00;98329.94;5056512;28;20103;-79
2023/07/05 03:43:43;;;;;;;6.77;2.77;;;;;;;16.37;100.00;98348.66;5056460;28;20033;-80
2023/07/05 03:46:11;;;;;;;4.40;2.70;;;;;;;16.39;100.00;98351.91;5054616;28;20116;-79
2023/07/05 03:48:39;;;;;;;7.40;2.30;;;;;;;16.20;100.00;98326.81;5051027;28;20077;-79
2023/07/05 03:51:04;;;;;;;7.30;2.40;;;;;;;16.44;100.00;98349.25;5043402;28;20040;-81
2023/07/05 03:53:30;;;;;;;5.75;2.50;;;;;;;16.35;100.00;98326.22;5060871;28;20021;-80
2023/07/05 03:56:01;;;;;;;3.03;1.92;;;;;;;16.39;100.00;98321.88;5054553;28;20056;-82
2023/07/05 03:58:27;;;;;;;4.72;1.90;;;;;;;16.66;100.00;98342.97;5065702;28;20115;-83
2023/07/05 04:00:53;;;;;;;5.25;2.15;;;;;;;16.65;100.00;98335.88;5051840;28;20036;-79
2023/07/05 04:03:18;;;;;;;3.25;1.98;;;;;;;16.69;100.00;98339.75;5046880;28;20415;-75
2023/07/05 04:05:44;;;;;;;8.63;2.13;;;;;;;16.82;100.00;98342.13;5055434;28;20021;-81
2023/07/05 04:08:09;;;;;;;7.10;1.95;;;;;;;16.94;100.00;98350.19;5054184;28;20036;-83
2023/07/05 04:10:34;;;;;;;2.70;1.63;;;;;;;16.94;100.00;98344.72;5068842;28;20071;-81
2023/07/05 04:13:00;;;;;;;3.15;1.70;;;;;;;16.98;100.00;98328.66;5048803;28;20075;-81
2023/07/05 04:15:25;;;;;;;6.85;1.77;;;;;;;17.02;100.00;98333.31;5045393;28;20031;-83
2023/07/05 04:17:50;;;;;;;3.45;1.70;;;;;;;17.10;100.00;98348.44;5056890;28;20025;-78
2023/07/05 04:20:16;;;;;;;2.58;1.45;;;;;;;17.08;100.00;98334.19;5044211;28;20060;-74
2023/07/05 04:22:41;;;;;;;4.22;1.75;;;;;;;17.14;100.00;98338.66;5051713;28;20478;-74
2023/07/05 04:25:08;;;;;;;4.70;1.58;;;;;;;17.19;100.00;98348.84;5070605;28;20021;-83
2023/07/05 04:27:34;;;;;;;3.05;1.75;;;;;;;17.19;100.00;98337.91;5049882;28;20036;-83
2023/07/05 04:30:00;;;;;;;2.65;1.80;;;;;;;17.29;100.00;98341.56;5051247;28;20657;-83
2023/07/05 04:32:26;;;;;;;2.80;1.67;;;;;;;17.22;100.00;98326.44;5060693;28;20108;-81
2023/07/05 04:34:51;;;;;;;4.10;1.70;;;;;;;17.29;100.00;98338.81;5055543;28;20060;-80
2023/07/05 04:37:16;;;;;;;4.38;1.83;;;;;;;17.35;100.00;98338.88;5075089;28;20017;-77
2023/07/05 04:39:42;;;;;;;3.47;1.88;;;;;;;17.15;100.00;98318.44;5075380;28;20041;-83
2023/07/05 04:42:07;;;;;;;3.35;1.70;;;;;;;17.20;100.00;98325.88;5084055;28;20025;-77
2023/07/05 04:44:32;;;;;;;2.47;1.40;;;;;;;17.26;100.00;98322.09;5053228;28;20379;-78
2023/07/05 04:46:58;;;;;;;3.75;1.60;;;;;;;17.24;100.00;98337.94;5055273;28;20029;-78
2023/07/05 04:49:23;;;;;;;4.30;1.70;;;;;;;17.16;100.00;98322.84;5051931;28;20025;-79
2023/07/05 04:51:49;;;;;;;2.70;1.83;;;;;;;17.13;100.00;98328.78;5047711;28;20040;-79
2023/07/05 04:54:16;;;;;;;4.65;1.80;;;;;;;17.24;100.00;98313.34;5043173;28;20030;-79
2023/07/05 04:56:41;;;;;;;5.75;1.75;;;;;;;17.11;100.00;98279.06;5046776;28;20040;-82
2023/07/05 04:59:06;;;;;;;10.07;1.80;;;;;;;17.52;100.00;98309.47;5061263;28;20394;-78
2023/07/05 05:01:32;;;;;;;2.75;1.75;;;;;;;17.59;100.00;98306.53;5048652;28;20041;-76
2023/07/05 05:03:57;;;;;;;2.83;1.48;;;;;;;17.78;100.00;98315.16;5051008;28;20028;-74
2023/07/05 05:06:22;;;;;;;5.32;1.83;;;;;;;17.82;100.00;98295.25;5044519;28;20021;-76
2023/07/05 05:08:48;;;;;;;4.07;1.70;;;;;;;17.92;100.00;98286.28;5038779;28;20457;-76
2023/07/05 05:11:13;;;;;;;3.40;1.52;;;;;;;18.07;100.00;98291.84;5054046;28;20021;-77
2023/07/05 05:13:38;;;;;;;3.65;1.60;;;;;;;18.11;100.00;98287.50;5050031;28;20122;-74
2023/07/05 05:16:04;;;;;;;3.30;1.58;;;;;;;18.18;100.00;98288.09;5048496;28;20079;-74
2023/07/05 05:18:31;;;;;;;4.53;1.52;;;;;;;18.40;100.00;98284.38;5044742;28;20029;-74
2023/07/05 05:20:57;;;;;;;4.53;1.60;;;;;;;18.48;100.00;98261.94;5049887;28;20031;-74
2023/07/05 05:23:23;;;;;;;1.80;1.52;;;;;;;18.73;100.00;98279.53;5044434;28;20116;-74
2023/07/05 05:25:49;;;;;;;4.10;1.50;;;;;;;18.74;100.00;98292.16;5045806;28;20469;-76
2023/07/05 05:28:15;;;;;;;3.40;1.50;;;;;;;18.79;100.00;98304.00;5045033;28;20116;-75
2023/07/05 05:30:43;;;;;;;2.45;1.30;;;;;;;19.13;100.00;98297.25;5047399;28;20483;-74
2023/07/05 05:33:09;;;;;;;6.30;1.58;;;;;;;19.65;100.00;98307.16;5048168;28;20071;-74
2023/07/05 05:35:35;;;;;;;3.13;1.30;;;;;;;19.92;100.00;98298.66;5050645;28;20467;-75
2023/07/05 05:38:02;;;;;;;3.78;1.40;;;;;;;19.80;100.00;98287.13;5044762;28;20375;-76
2023/07/05 05:40:27;;;;;;;2.50;1.33;;;;;;;19.98;100.00;98293.97;5043742;28;20032;-77
2023/07/05 05:42:53;;;;;;;3.45;1.63;;;;;;;20.05;100.00;98269.81;5043556;28;20025;-77
2023/07/05 05:45:18;;;;;;;2.15;1.35;;;;;;;20.15;100.00;98261.53;5048288;28;20024;-75
2023/07/05 05:47:44;;;;;;;2.90;1.25;;;;;;;20.20;100.00;98271.66;5051086;28;20104;-74
2023/07/05 05:50:09;;;;;;;3.25;1.52;;;;;;;20.62;100.00;98296.03;5049883;28;20553;-75
2023/07/05 05:52:35;;;;;;;1.98;1.20;;;;;;;20.50;100.00;98279.00;5047686;28;20120;-75
2023/07/05 05:55:02;;;;;;;2.13;1.00;;;;;;;20.27;100.00;98263.97;5046741;28;20025;-72
2023/07/05 05:57:27;;;;;;;5.28;1.20;;;;;;;20.54;100.00;98282.84;5049245;28;20016;-71
2023/07/05 05:59:52;;;;;;;3.38;1.20;;;;;;;20.53;100.00;98284.75;5050241;28;20448;-72
2023/07/05 06:02:18;;;;;;;2.38;1.20;;;;;;;20.10;100.00;98283.53;5048236;28;20056;-72
2023/07/05 06:04:43;;;;;;;3.20;1.40;;;;;;;19.72;100.00;98296.75;5047756;28;20029;-75
2023/07/05 06:07:08;;;;;;;2.15;1.35;;;;;;;19.63;100.00;98320.34;5043607;28;20091;-77
2023/07/05 06:09:38;;;;;;;2.78;1.40;;;;;;;19.54;100.00;98333.75;5047401;28;20041;-75
2023/07/05 06:12:04;;;;;;;2.90;1.50;;;;;;;19.39;100.00;98355.72;5047938;28;20082;-76
2023/07/05 06:14:30;;;;;;;4.20;1.40;;;;;;;19.27;100.00;98367.72;5050697;28;20025;-75
2023/07/05 06:16:55;;;;;;;6.13;1.73;;;;;;;18.92;100.00;98379.44;5041270;28;20043;-77
2023/07/05 06:19:21;;;;;;;5.35;1.70;;;;;;;18.40;100.00;98410.34;5052864;28;20032;-75
2023/07/05 06:21:46;;;;;;;6.55;1.77;;;;;;;17.79;100.00;98437.19;5071144;22;20051;-76
2023/07/05 06:24:11;;;;;;;6.03;1.75;;;;;;;17.25;100.00;98430.63;5033278;28;20362;-78
2023/07/05 06:26:36;;;;;;;5.85;1.63;;;;;;;17.01;100.00;98432.00;5051985;28;20061;-77
2023/07/05 06:29:02;;;;;;;3.95;1.30;;;;;;;16.74;100.00;98435.44;5027878;28;20087;-75
2023/07/05 06:31:32;;;;;;;3.08;1.70;;;;;;;16.74;100.00;98449.09;5039587;28;20039;-74
2023/07/05 06:33:58;;;;;;;3.80;1.48;;;;;;;16.72;100.00;98453.97;5054569;28;20076;-77
2023/07/05 06:36:23;;;;;;;3.72;1.40;;;;;;;16.90;100.00;98468.44;5056307;28;20382;-76
2023/07/05 06:38:49;;;;;;;4.00;1.20;;;;;;;17.09;100.00;98478.81;5050464;28;20040;-75
2023/07/05 06:41:14;;;;;;;4.07;1.80;;;;;;;17.19;100.00;98494.53;5053235;28;20032;-75
2023/07/05 06:43:39;;;;;;;2.55;1.40;;;;;;;17.26;100.00;98484.22;5047828;28;20081;-74
2023/07/05 06:46:05;;;;;;;3.67;1.60;;;;;;;17.57;100.00;98478.28;5049803;28;20037;-75
2023/07/05 06:48:30;;;;;;;3.15;1.75;;;;;;;17.71;100.00;98483.13;5047808;28;20166;-76
2023/07/05 06:51:02;;;;;;;2.17;1.30;;;;;;;17.39;100.00;98458.41;5052711;28;20100;-77
2023/07/05 06:53:27;;;;;;;3.08;1.40;;;;;;;17.27;100.00;98453.09;5055117;28;20033;-78
2023/07/05 06:55:53;;;;;;;2.35;1.13;;;;;;;17.29;100.00;98470.06;5041525;28;20043;-76
2023/07/05 06:58:21;;;;;;;2.10;1.30;;;;;;;17.29;100.00;98508.34;5050331;28;20747;-79
2023/07/05 07:00:49;;;;;;;2.58;1.10;;;;;;;17.34;100.00;98507.56;5052960;28;20029;-73
2023/07/05 07:03:15;;;;;;;1.70;1.20;;;;;;;17.35;100.00;98508.41;5056441;28;20126;-78
2023/07/05 07:05:40;;;;;;;4.30;1.40;;;;;;;17.38;100.00;98510.63;5061578;28;20057;-80
2023/07/05 07:08:06;;;;;;;8.57;1.42;;;;;;;17.23;100.00;98509.34;5054368;28;20029;-80
2023/07/05 07:10:35;;;;;;;3.40;1.48;;;;;;;17.12;100.00;98509.47;5054722;28;20026;-75
2023/07/05 07:13:02;;;;;;;3.85;1.13;;;;;;;17.06;100.00;98506.66;5050791;28;20469;-72
2023/07/05 07:15:27;;;;;;;2.97;1.20;;;;;;;17.07;100.00;98519.25;5034531;28;20074;-77
2023/07/05 07:17:53;;;;;;;3.78;1.35;;;;;;;17.07;100.00;98512.97;5054227;28;20028;-76
2023/07/05 07:20:19;;;;;;;2.38;1.33;;;;;;;17.11;100.00;98510.53;5053350;28;20063;-71
2023/07/05 07:22:46;;;;;;;3.28;1.50;;;;;;;17.15;100.00;98526.19;5034792;28;20119;-77
2023/07/05 07:25:12;;;;;;;1.83;1.40;;;;;;;17.20;100.00;98539.94;5042412;28;20045;-78
2023/07/05 07:27:37;;;;;;;3.50;1.38;;;;;;;17.20;100.00;98530.91;5037557;28;20020;-79
2023/07/05 07:30:18;;;;;;;2.20;1.08;;;;;;;17.17;100.00;98545.09;5055383;28;20033;-81
2023/07/05 07:32:47;;;;;;;3.22;1.08;;;;;;;17.27;100.00;98546.03;5046871;28;20037;-74
2023/07/05 07:35:14;;;;;;;6.15;1.33;;;;;;;17.57;100.00;98543.94;5054692;28;20070;-78
2023/07/05 07:37:39;;;;;;;2.67;0.90;;;;;;;17.95;100.00;98507.47;5042424;28;20094;-80
2023/07/05 07:40:06;;;;;;;2.95;1.10;;;;;;;18.53;100.00;98510.44;5049147;28;20470;-74
2023/07/05 07:42:32;;;;;;;4.50;1.50;;;;;;;18.54;100.00;98485.50;5051340;28;20021;-78
2023/07/05 07:44:58;;;;;;;2.60;1.30;;;;;;;18.83;100.00;98482.44;5052074;28;20466;-79
2023/07/05 07:47:23;;;;;;;3.88;1.13;;;;;;;18.54;100.00;98471.81;5046039;28;20116;-77
2023/07/05 07:49:49;;;;;;;2.88;1.23;;;;;;;18.26;100.00;98500.38;5033959;28;20032;-78
2023/07/05 07:52:15;;;;;;;1.55;1.00;;;;;;;18.93;100.00;98484.41;5033538;28;20032;-76
2023/07/05 07:55:37;;;;;;;5.07;1.35;;;;;;;20.43;100.00;98495.53;5042308;28;20021;-80
2023/07/05 07:58:04;;;;;;;3.28;1.30;;;;;;;22.24;100.00;98451.38;5039810;28;20064;-79
2023/07/05 08:00:45;;;;;;;2.13;1.30;;;;;;;23.61;100.00;98489.69;5059934;28;20032;-79
2023/07/05 08:03:11;;;;;;;6.85;1.52;;;;;;;23.28;100.00;98480.44;5034295;28;20039;-79
2023/07/05 08:05:36;;;;;;;3.05;1.70;;;;;;;23.32;100.00;98503.59;5045668;28;20045;-79
2023/07/05 08:08:02;;;;;;;2.70;1.67;;;;;;;22.26;100.00;98504.28;5062652;28;20171;-80
2023/07/05 08:10:28;;;;;;;5.20;1.75;;;;;;;23.90;100.00;98497.88;5057260;28;20243;-79
2023/07/05 08:12:53;;;;;;;2.83;1.60;;;;;;;24.25;100.00;98513.09;5031661;28;20458;-79
2023/07/05 08:15:19;;;;;;;5.25;1.80;;;;;;;26.48;92.09;98506.50;5063330;28;20047;-80
2023/07/05 08:17:46;;;;;;;4.93;1.95;;;;;;;23.11;100.00;98525.06;5056254;28;20055;-80
2023/07/05 08:20:13;;;;;;;4.03;2.22;;;;;;;21.37;100.00;98531.69;5070264;28;20119;-72
2023/07/05 08:22:39;;;;;;;4.78;2.20;;;;;;;20.55;100.00;98512.63;5063428;28;20084;-80
2023/07/05 08:25:04;;;;;;;3.17;1.98;;;;;;;19.91;100.00;98522.97;5039454;28;20028;-77
2023/07/05 08:27:30;;;;;;;3.60;2.10;;;;;;;21.21;100.00;98509.72;5055714;28;20039;-79
2023/07/05 08:29:55;;;;;;;4.43;2.38;;;;;;;22.73;100.00;98511.06;5070297;28;20033;-74
2023/07/05 08:32:21;;;;;;;5.47;2.50;;;;;;;24.20;100.00;98517.88;5054486;28;20052;-78
2023/07/05 08:34:48;;;;;;;4.38;2.35;;;;;;;21.52;100.00;98533.63;5079596;28;20163;-76
2023/07/05 08:37:13;;;;;;;6.30;2.70;;;;;;;20.29;100.00;98534.56;5071894;28;20021;-72
2023/07/05 08:39:38;;;;;;;3.88;2.03;;;;;;;20.39;100.00;98532.94;5068919;28;20036;-73
2023/07/05 08:42:23;;;;;;;4.68;2.50;;;;;;;20.05;100.00;98547.16;5067627;28;20032;-73
2023/07/05 08:45:00;;;;;;;5.88;2.50;;;;;;;22.88;100.00;98546.78;5058682;28;20070;-74
2023/07/05 08:47:48;;;;;;;5.05;2.60;;;;;;;23.08;100.00;98548.56;5048123;28;20033;-73
2023/07/05 08:50:29;;;;;;;4.32;2.40;;;;;;;22.29;100.00;98556.06;5039160;28;20119;-72
2023/07/05 08:53:10;;;;;;;3.40;2.38;;;;;;;21.40;100.00;98553.19;5050942;28;20512;-74
2023/07/05 08:55:42;;;;;;;4.72;2.65;;;;;;;21.70;100.00;98567.97;5052310;28;20115;-74
2023/07/05 08:58:10;;;;;;;6.03;2.45;;;;;;;22.34;100.00;98567.06;5029353;28;20518;-76
2023/07/05 09:00:49;;;;;;;4.70;2.85;;;;;;;24.79;100.00;98562.59;5049714;28;20056;-78
2023/07/05 09:03:15;;;;;;;5.47;2.75;;;;;;;27.62;80.00;98562.38;5046849;28;20036;-76
2023/07/05 09:05:55;;;;;;;4.70;2.50;;;;;;;29.40;67.66;98569.00;5053509;28;20033;-77
2023/07/05 09:08:34;;;;;;;4.15;2.70;;;;;;;30.41;62.08;98561.88;5053309;28;20091;-75
2023/07/05 09:11:11;;;;;;;3.47;2.60;;;;;;;28.94;62.25;98561.38;5068262;28;20494;-79
2023/07/05 09:13:38;;;;;;;6.47;2.90;;;;;;;28.79;65.23;98571.06;5054501;28;20033;-79
2023/07/05 09:16:39;;;;;;;4.45;2.88;;;;;;;28.05;61.78;98581.16;5053548;28;20540;-79
2023/07/05 09:19:44;;;;;;;4.47;2.58;;;;;;;28.46;61.11;98577.16;5026918;28;20063;-77
2023/07/05 09:22:14;;;;;;;4.38;2.70;;;;;;;27.83;62.34;98564.59;5066947;28;20037;-77
2023/07/05 09:24:41;;;;;;;6.25;3.03;;;;;;;29.84;55.61;98579.94;5074229;28;20026;-77
2023/07/05 09:27:20;;;;;;;5.70;2.85;;;;;;;28.22;58.45;98580.38;5050536;28;20029;-74
2023/07/05 09:30:00;;;;;;;3.67;2.65;;;;;;;29.57;57.22;98584.81;5047815;28;20498;-75
2023/07/05 09:32:35;;;;;;;6.40;2.75;;;;;;;27.51;57.25;98581.31;5040765;28;20043;-75
2023/07/05 09:35:01;;;;;;;3.75;2.70;;;;;;;29.41;56.65;98575.38;5067080;28;20029;-73
2023/07/05 09:37:35;;;;;;;3.97;2.70;;;;;;;30.01;51.66;98582.66;5072259;28;20028;-73
2023/07/05 09:40:15;;;;;;;4.07;2.92;;;;;;;30.61;51.09;98593.75;5073987;28;20021;-74
2023/07/05 09:42:47;;;;;;;3.80;2.60;;;;;;;28.27;56.00;98571.88;5072191;28;20076;-75
2023/07/05 09:45:14;;;;;;;4.60;2.80;;;;;;;28.55;55.49;98593.84;5073732;28;20085;-75
2023/07/05 09:47:40;;;;;;;3.58;2.47;;;;;;;30.35;49.06;98589.19;5065980;28;20024;-74
2023/07/05 09:50:17;;;;;;;5.32;2.83;;;;;;;28.72;50.83;98577.16;5055620;28;20078;-74
2023/07/05 09:52:49;;;;;;;6.28;2.70;;;;;;;29.42;46.36;98586.22;5055216;28;20533;-75
2023/07/05 09:55:17;;;;;;;5.68;2.50;;;;;;;29.01;48.52;98593.16;5058192;28;20059;-75
2023/07/05 09:57:42;;;;;;;4.35;2.45;;;;;;;31.62;46.70;98591.44;5060546;28;20079;-75
2023/07/05 10:00:36;;;;;;;8.05;2.80;;;;;;;29.41;46.74;98587.34;5061114;28;20490;-75
2023/07/05 10:03:10;;;;;;;4.45;2.60;;;;;;;31.15;45.45;98594.59;5065747;28;20028;-74
2023/07/05 10:05:35;;;;;;;9.43;2.50;;;;;;;32.26;41.49;98578.72;5059148;28;20075;-74
2023/07/05 10:08:07;;;;;;;4.20;2.58;;;;;;;33.07;39.68;98589.13;5052856;28;20033;-75
2023/07/05 10:10:37;;;;;;;5.10;2.00;;;;;;;34.23;38.08;98583.25;5058485;28;20029;-74
2023/07/05 10:13:11;;;;;;;2.75;1.95;;;;;;;35.02;37.04;98588.56;5056283;28;20036;-75
2023/07/05 10:15:43;;;;;;;3.42;2.15;;;;;;;34.65;36.23;98582.59;5056290;28;20431;-74
2023/07/05 10:18:28;;;;;;;6.07;2.00;;;;;;;33.86;35.45;98579.97;5053474;28;20438;-75
2023/07/05 10:20:57;;;;;;;3.40;2.08;;;;;;;35.17;35.12;98586.88;5056284;28;20041;-75
2023/07/05 10:23:23;;;;;;;3.03;2.00;;;;;;;33.66;35.49;98591.09;5051537;28;20028;-76
2023/07/05 10:25:51;;;;;;;3.53;2.15;;;;;;;34.25;36.41;98592.94;5051504;28;20032;-75
2023/07/05 10:28:25;;;;;;;3.83;2.22;;;;;;;29.97;38.97;98604.00;5054640;28;20455;-75
2023/07/05 10:30:54;;;;;;;4.18;2.20;;;;;;;33.06;37.82;98593.88;5043722;28;20989;-75
2023/07/05 10:33:25;;;;;;;;;;;;;;;34.05;35.17;98592.03;5052565;28;20028;-76
2023/07/05 10:36:09;;;;;;;4.25;1.75;;;;;;;33.90;34.59;98603.28;5053811;28;19916;-75
2023/07/05 10:38:48;;;;;;;2.72;1.80;;;;;;;32.55;34.05;98590.00;5051697;28;20033;-75
2023/07/05 10:41:19;;;;;;;2.83;1.83;;;;;;;30.58;36.11;98614.81;5058668;28;20067;-75
2023/07/05 10:43:52;;;;;;;3.85;1.90;;;;;;;30.47;37.22;98608.81;5057571;28;20037;-76
2023/07/05 10:46:21;;;;;;;3.97;2.00;;;;;;;31.56;36.35;98592.81;5054946;28;20097;-75
2023/07/05 10:48:48;;;;;;;6.82;2.13;;;;;;;31.68;36.17;98608.81;5053810;28;20033;-75
2023/07/05 10:51:20;;;;;;;2.40;1.80;;;;;;;31.56;37.04;98617.19;5042583;28;20025;-75
2023/07/05 10:53:55;;;;;;;3.65;1.73;;;;;;;32.69;35.55;98615.63;5045378;28;20028;-76
2023/07/05 10:56:26;;;;;;;4.43;1.98;;;;;;;33.12;34.68;98614.09;5063250;28;20028;-76
2023/07/05 10:59:12;;;;;;;2.63;1.80;;;;;;;33.30;33.92;98622.97;5034823;28;20029;-75
2023/07/05 11:01:54;;;;;;;2.38;1.88;;;;;;;33.59;32.69;98607.75;5052890;28;20481;-76
2023/07/05 11:04:22;;;;;;;2.42;1.73;;;;;;;34.24;33.80;98604.53;5060504;28;20108;-76
2023/07/05 11:06:51;;;;;;;2.58;1.50;;;;;;;33.07;32.85;98608.75;5054080;28;20498;-76
2023/07/05 11:09:18;;;;;;;2.17;1.42;;;;;;;31.90;33.20;98599.13;5056892;28;20064;-82
2023/07/05 11:11:57;;;;;;;4.03;1.70;;;;;;;30.85;34.45;98615.44;5048170;28;20036;-77
2023/07/05 11:14:28;;;;;;;2.83;1.63;;;;;;;30.98;34.22;98600.34;5033894;28;20028;-78
2023/07/05 11:16:55;;;;;;;4.80;1.48;;;;;;;32.88;32.92;98599.00;5033817;28;20048;-78
2023/07/05 11:19:26;;;;;;;10.77;1.73;;;;;;;33.63;31.57;98617.06;5058320;28;20032;-78
2023/07/05 11:21:52;;;;;;;2.80;1.20;;;;;;;32.72;31.83;98609.31;5054431;28;20052;-80
2023/07/05 11:24:41;;;;;;;2.30;1.30;;;;;;;33.90;30.08;98620.13;5057493;28;20091;-79
2023/07/05 11:27:27;;;;;;;2.60;1.42;;;;;;;34.54;29.72;98627.28;5031579;28;20457;-80
2023/07/05 11:29:53;;;;;;;3.05;1.38;;;;;;;34.42;30.35;98619.78;5052142;28;20075;-72
2023/07/05 11:32:20;;;;;;;2.25;1.40;;;;;;;34.88;28.71;98625.66;5049678;28;20029;-71
2023/07/05 11:34:49;;;;;;;1.92;1.27;;;;;;;34.95;29.59;98624.97;5052604;28;20021;-76
2023/07/05 11:37:14;;;;;;;1.98;1.33;;;;;;;32.68;31.74;98616.81;5050436;28;20083;-75